sensor_id;sensor_type;location;lat;lon;timestamp;P1;durP1;ratioP1;P2;durP2;ratioP2
10232;SDS011;5161;48.174;11.756;2023-03-23T00:01:23;6.13;;;4.30;;
10232;SDS011;5161;48.174;11.756;2023-03-23T00:03:51;4.50;;;4.10;;
10232;SDS011;5161;48.174;11.756;2023-03-23T00:06:19;4.10;;;3.80;;
10232;SDS011;5161;48.174;11.756;2023-03-23T00:08:48;4.40;;;3.90;;
10232;SDS011;5161;48.174;11.756;2023-03-23T00:11:20;4.60;;;3.93;;
10232;SDS011;5161;48.174;11.756;2023-03-23T00:13:48;4.20;;;3.80;;
10232;SDS011;5161;48.174;11.756;2023-03-23T00:16:18;5.57;;;3.83;;
10232;SDS011;5161;48.174;11.756;2023-03-23T00:18:46;4.10;;;3.80;;
10232;SDS011;5161;48.174;11.756;2023-03-23T00:21:13;4.03;;;3.73;;
10232;SDS011;5161;48.174;11.756;2023-03-23T00:23:39;6.00;;;3.60;;
10232;SDS011;5161;48.174;11.756;2023-03-23T00:26:05;4.10;;;3.70;;
10232;SDS011;5161;48.174;11.756;2023-03-23T00:28:31;3.70;;;3.40;;
10232;SDS011;5161;48.174;11.756;2023-03-23T00:30:58;3.80;;;3.50;;
10232;SDS011;5161;48.174;11.756;2023-03-23T00:33:26;8.40;;;4.20;;
10232;SDS011;5161;48.174;11.756;2023-03-23T00:35:53;5.47;;;3.73;;
10232;SDS011;5161;48.174;11.756;2023-03-23T00:38:20;4.07;;;3.70;;
10232;SDS011;5161;48.174;11.756;2023-03-23T00:40:47;3.83;;;3.50;;
10232;SDS011;5161;48.174;11.756;2023-03-23T00:43:13;4.30;;;3.77;;
10232;SDS011;5161;48.174;11.756;2023-03-23T00:45:41;6.17;;;3.93;;
10232;SDS011;5161;48.174;11.756;2023-03-23T00:48:07;5.07;;;3.80;;
10232;SDS011;5161;48.174;11.756;2023-03-23T00:50:32;4.50;;;3.90;;
10232;SDS011;5161;48.174;11.756;2023-03-23T00:52:58;5.70;;;3.93;;
10232;SDS011;5161;48.174;11.756;2023-03-23T00:55:24;3.97;;;3.60;;
10232;SDS011;5161;48.174;11.756;2023-03-23T00:57:50;4.27;;;3.93;;
10232;SDS011;5161;48.174;11.756;2023-03-23T01:00:17;3.90;;;3.60;;
10232;SDS011;5161;48.174;11.756;2023-03-23T01:02:43;3.80;;;3.50;;
10232;SDS011;5161;48.174;11.756;2023-03-23T01:05:10;3.70;;;3.40;;
10232;SDS011;5161;48.174;11.756;2023-03-23T01:07:36;4.33;;;3.93;;
10232;SDS011;5161;48.174;11.756;2023-03-23T01:10:02;3.90;;;3.60;;
10232;SDS011;5161;48.174;11.756;2023-03-23T01:12:29;4.27;;;3.53;;
10232;SDS011;5161;48.174;11.756;2023-03-23T01:14:55;3.87;;;3.57;;
10232;SDS011;5161;48.174;11.756;2023-03-23T01:17:20;3.80;;;3.47;;
10232;SDS011;5161;48.174;11.756;2023-03-23T01:19:46;4.47;;;3.53;;
10232;SDS011;5161;48.174;11.756;2023-03-23T01:22:12;5.43;;;3.53;;
10232;SDS011;5161;48.174;11.756;2023-03-23T01:24:38;5.47;;;3.50;;
10232;SDS011;5161;48.174;11.756;2023-03-23T01:27:03;6.37;;;4.03;;
10232;SDS011;5161;48.174;11.756;2023-03-23T01:29:34;4.17;;;3.53;;
10232;SDS011;5161;48.174;11.756;2023-03-23T01:32:00;4.17;;;3.77;;
10232;SDS011;5161;48.174;11.756;2023-03-23T01:34:27;3.63;;;3.40;;
10232;SDS011;5161;48.174;11.756;2023-03-23T01:36:53;4.20;;;3.80;;
10232;SDS011;5161;48.174;11.756;2023-03-23T01:39:18;4.97;;;3.40;;
10232;SDS011;5161;48.174;11.756;2023-03-23T01:41:44;4.90;;;3.60;;
10232;SDS011;5161;48.174;11.756;2023-03-23T01:46:41;3.87;;;3.50;;
10232;SDS011;5161;48.174;11.756;2023-03-23T01:49:12;4.00;;;3.70;;
10232;SDS011;5161;48.174;11.756;2023-03-23T01:51:43;5.43;;;3.40;;
10232;SDS011;5161;48.174;11.756;2023-03-23T01:54:15;4.00;;;3.70;;
10232;SDS011;5161;48.174;11.756;2023-03-23T01:56:46;3.70;;;3.40;;
10232;SDS011;5161;48.174;11.756;2023-03-23T01:59:19;4.20;;;3.53;;
10232;SDS011;5161;48.174;11.756;2023-03-23T02:01:45;4.30;;;3.30;;
10232;SDS011;5161;48.174;11.756;2023-03-23T02:04:14;4.00;;;3.40;;
10232;SDS011;5161;48.174;11.756;2023-03-23T02:06:42;3.40;;;3.20;;
10232;SDS011;5161;48.174;11.756;2023-03-23T02:09:09;3.90;;;3.60;;
10232;SDS011;5161;48.174;11.756;2023-03-23T02:11:38;3.80;;;3.50;;
10232;SDS011;5161;48.174;11.756;2023-03-23T02:14:04;3.73;;;3.53;;
10232;SDS011;5161;48.174;11.756;2023-03-23T02:16:34;5.33;;;3.73;;
10232;SDS011;5161;48.174;11.756;2023-03-23T02:19:29;5.30;;;3.60;;
10232;SDS011;5161;48.174;11.756;2023-03-23T02:27:20;4.00;;;3.70;;
10232;SDS011;5161;48.174;11.756;2023-03-23T02:35:12;4.43;;;3.43;;
10232;SDS011;5161;48.174;11.756;2023-03-23T02:37:52;4.20;;;3.80;;
10232;SDS011;5161;48.174;11.756;2023-03-23T02:40:26;5.57;;;3.50;;
10232;SDS011;5161;48.174;11.756;2023-03-23T02:42:56;3.70;;;3.40;;
10232;SDS011;5161;48.174;11.756;2023-03-23T02:45:22;3.97;;;3.67;;
10232;SDS011;5161;48.174;11.756;2023-03-23T02:47:51;4.07;;;3.60;;
10232;SDS011;5161;48.174;11.756;2023-03-23T02:50:19;4.57;;;3.70;;
10232;SDS011;5161;48.174;11.756;2023-03-23T02:52:47;4.33;;;3.90;;
10232;SDS011;5161;48.174;11.756;2023-03-23T02:55:15;3.97;;;3.40;;
10232;SDS011;5161;48.174;11.756;2023-03-23T02:57:46;3.50;;;3.20;;
10232;SDS011;5161;48.174;11.756;2023-03-23T03:00:13;3.80;;;3.40;;
10232;SDS011;5161;48.174;11.756;2023-03-23T03:02:44;3.60;;;3.40;;
10232;SDS011;5161;48.174;11.756;2023-03-23T03:08:14;4.30;;;3.50;;
10232;SDS011;5161;48.174;11.756;2023-03-23T03:10:58;3.47;;;3.20;;
10232;SDS011;5161;48.174;11.756;2023-03-23T03:13:30;3.60;;;3.40;;
10232;SDS011;5161;48.174;11.756;2023-03-23T03:16:27;4.10;;;3.30;;
10232;SDS011;5161;48.174;11.756;2023-03-23T03:21:37;3.47;;;3.17;;
10232;SDS011;5161;48.174;11.756;2023-03-23T03:24:06;4.67;;;3.50;;
10232;SDS011;5161;48.174;11.756;2023-03-23T03:26:36;5.90;;;3.43;;
10232;SDS011;5161;48.174;11.756;2023-03-23T03:29:10;3.97;;;3.57;;
10232;SDS011;5161;48.174;11.756;2023-03-23T03:31:37;3.50;;;3.20;;
10232;SDS011;5161;48.174;11.756;2023-03-23T03:34:06;6.00;;;3.77;;
10232;SDS011;5161;48.174;11.756;2023-03-23T03:36:32;3.57;;;3.37;;
10232;SDS011;5161;48.174;11.756;2023-03-23T03:39:06;3.80;;;3.50;;
10232;SDS011;5161;48.174;11.756;2023-03-23T03:41:34;3.70;;;3.40;;
10232;SDS011;5161;48.174;11.756;2023-03-23T03:44:01;3.43;;;3.20;;
10232;SDS011;5161;48.174;11.756;2023-03-23T03:46:27;3.60;;;3.30;;
10232;SDS011;5161;48.174;11.756;2023-03-23T03:48:56;4.60;;;3.37;;
10232;SDS011;5161;48.174;11.756;2023-03-23T03:51:26;3.63;;;3.33;;
10232;SDS011;5161;48.174;11.756;2023-03-23T03:53:52;3.50;;;3.30;;
10232;SDS011;5161;48.174;11.756;2023-03-23T03:56:18;3.53;;;3.33;;
10232;SDS011;5161;48.174;11.756;2023-03-23T03:58:46;4.23;;;3.63;;
10232;SDS011;5161;48.174;11.756;2023-03-23T04:01:13;6.53;;;3.47;;
10232;SDS011;5161;48.174;11.756;2023-03-23T04:03:41;6.73;;;3.43;;
10232;SDS011;5161;48.174;11.756;2023-03-23T04:06:08;3.97;;;3.30;;
10232;SDS011;5161;48.174;11.756;2023-03-23T04:08:35;3.23;;;2.97;;
10232;SDS011;5161;48.174;11.756;2023-03-23T04:11:02;7.90;;;3.40;;
10232;SDS011;5161;48.174;11.756;2023-03-23T04:13:29;4.00;;;3.50;;
10232;SDS011;5161;48.174;11.756;2023-03-23T04:15:56;4.33;;;3.47;;
10232;SDS011;5161;48.174;11.756;2023-03-23T04:18:22;3.60;;;3.30;;
10232;SDS011;5161;48.174;11.756;2023-03-23T04:20:49;3.67;;;3.40;;
10232;SDS011;5161;48.174;11.756;2023-03-23T04:23:32;5.47;;;3.30;;
10232;SDS011;5161;48.174;11.756;2023-03-23T04:29:17;3.40;;;3.10;;
10232;SDS011;5161;48.174;11.756;2023-03-23T04:31:58;4.13;;;3.30;;
10232;SDS011;5161;48.174;11.756;2023-03-23T04:34:43;3.97;;;3.53;;
10232;SDS011;5161;48.174;11.756;2023-03-23T04:37:37;3.57;;;3.27;;
10232;SDS011;5161;48.174;11.756;2023-03-23T04:40:28;5.63;;;3.30;;
10232;SDS011;5161;48.174;11.756;2023-03-23T04:43:18;3.40;;;3.10;;
10232;SDS011;5161;48.174;11.756;2023-03-23T04:49:24;4.63;;;4.00;;
10232;SDS011;5161;48.174;11.756;2023-03-23T04:59:15;3.93;;;3.27;;
10232;SDS011;5161;48.174;11.756;2023-03-23T05:02:21;4.10;;;3.67;;
10232;SDS011;5161;48.174;11.756;2023-03-23T05:05:13;3.50;;;3.30;;
10232;SDS011;5161;48.174;11.756;2023-03-23T05:11:50;3.40;;;3.10;;
10232;SDS011;5161;48.174;11.756;2023-03-23T05:14:41;5.40;;;3.17;;
10232;SDS011;5161;48.174;11.756;2023-03-23T05:17:35;3.30;;;3.00;;
10232;SDS011;5161;48.174;11.756;2023-03-23T05:27:22;5.73;;;3.23;;
10232;SDS011;5161;48.174;11.756;2023-03-23T05:36:34;3.70;;;3.40;;
10232;SDS011;5161;48.174;11.756;2023-03-23T05:42:07;3.30;;;3.00;;
10232;SDS011;5161;48.174;11.756;2023-03-23T05:44:56;4.57;;;3.10;;
10232;SDS011;5161;48.174;11.756;2023-03-23T05:48:00;3.97;;;3.20;;
10232;SDS011;5161;48.174;11.756;2023-03-23T05:54:07;3.20;;;3.00;;
10232;SDS011;5161;48.174;11.756;2023-03-23T05:57:13;4.30;;;3.13;;
10232;SDS011;5161;48.174;11.756;2023-03-23T06:07:12;11.83;;;3.83;;
10232;SDS011;5161;48.174;11.756;2023-03-23T06:10:05;5.40;;;3.40;;
10232;SDS011;5161;48.174;11.756;2023-03-23T06:16:21;7.40;;;5.23;;
10232;SDS011;5161;48.174;11.756;2023-03-23T06:18:48;6.77;;;5.50;;
10232;SDS011;5161;48.174;11.756;2023-03-23T06:21:43;8.20;;;4.83;;
10232;SDS011;5161;48.174;11.756;2023-03-23T06:24:15;8.03;;;3.87;;
10232;SDS011;5161;48.174;11.756;2023-03-23T06:26:54;14.10;;;4.30;;
10232;SDS011;5161;48.174;11.756;2023-03-23T06:29:38;5.07;;;3.70;;
10232;SDS011;5161;48.174;11.756;2023-03-23T06:32:15;4.07;;;3.50;;
10232;SDS011;5161;48.174;11.756;2023-03-23T06:34:52;6.43;;;3.57;;
10232;SDS011;5161;48.174;11.756;2023-03-23T06:40:38;4.13;;;3.50;;
10232;SDS011;5161;48.174;11.756;2023-03-23T06:46:27;4.30;;;3.40;;
10232;SDS011;5161;48.174;11.756;2023-03-23T06:51:51;13.27;;;3.60;;
10232;SDS011;5161;48.174;11.756;2023-03-23T06:54:41;7.13;;;3.90;;
10232;SDS011;5161;48.174;11.756;2023-03-23T07:00:23;7.40;;;3.83;;
10232;SDS011;5161;48.174;11.756;2023-03-23T07:06:48;6.87;;;4.10;;
10232;SDS011;5161;48.174;11.756;2023-03-23T07:12:39;5.83;;;3.90;;
10232;SDS011;5161;48.174;11.756;2023-03-23T07:15:29;3.87;;;3.47;;
10232;SDS011;5161;48.174;11.756;2023-03-23T07:24:15;3.83;;;3.47;;
10232;SDS011;5161;48.174;11.756;2023-03-23T07:27:09;5.50;;;3.60;;
10232;SDS011;5161;48.174;11.756;2023-03-23T07:32:53;5.33;;;3.50;;
10232;SDS011;5161;48.174;11.756;2023-03-23T07:38:22;3.73;;;3.43;;
10232;SDS011;5161;48.174;11.756;2023-03-23T07:41:20;5.47;;;3.50;;
10232;SDS011;5161;48.174;11.756;2023-03-23T07:44:11;7.03;;;3.70;;
10232;SDS011;5161;48.174;11.756;2023-03-23T07:47:00;9.57;;;3.80;;
10232;SDS011;5161;48.174;11.756;2023-03-23T07:50:16;8.57;;;4.03;;
10232;SDS011;5161;48.174;11.756;2023-03-23T07:53:07;5.23;;;3.53;;
10232;SDS011;5161;48.174;11.756;2023-03-23T07:56:17;8.13;;;3.80;;
10232;SDS011;5161;48.174;11.756;2023-03-23T07:58:55;5.60;;;3.70;;
10232;SDS011;5161;48.174;11.756;2023-03-23T08:01:23;4.00;;;3.60;;
10232;SDS011;5161;48.174;11.756;2023-03-23T08:03:49;7.37;;;4.07;;
10232;SDS011;5161;48.174;11.756;2023-03-23T08:06:18;4.00;;;3.37;;
10232;SDS011;5161;48.174;11.756;2023-03-23T08:08:55;5.03;;;3.50;;
10232;SDS011;5161;48.174;11.756;2023-03-23T08:11:33;7.47;;;3.47;;
10232;SDS011;5161;48.174;11.756;2023-03-23T08:14:30;4.10;;;3.53;;
10232;SDS011;5161;48.174;11.756;2023-03-23T08:17:22;7.30;;;3.23;;
10232;SDS011;5161;48.174;11.756;2023-03-23T08:20:11;4.00;;;3.50;;
10232;SDS011;5161;48.174;11.756;2023-03-23T08:23:25;6.50;;;3.13;;
10232;SDS011;5161;48.174;11.756;2023-03-23T08:26:15;5.73;;;3.53;;
10232;SDS011;5161;48.174;11.756;2023-03-23T08:28:44;4.83;;;3.40;;
10232;SDS011;5161;48.174;11.756;2023-03-23T08:31:15;4.97;;;3.37;;
10232;SDS011;5161;48.174;11.756;2023-03-23T08:33:49;3.63;;;3.37;;
10232;SDS011;5161;48.174;11.756;2023-03-23T08:36:25;4.80;;;3.33;;
10232;SDS011;5161;48.174;11.756;2023-03-23T08:38:56;6.47;;;3.40;;
10232;SDS011;5161;48.174;11.756;2023-03-23T08:41:33;3.90;;;3.27;;
10232;SDS011;5161;48.174;11.756;2023-03-23T08:44:02;4.07;;;3.60;;
10232;SDS011;5161;48.174;11.756;2023-03-23T08:46:43;5.50;;;3.50;;
10232;SDS011;5161;48.174;11.756;2023-03-23T08:49:15;4.47;;;3.13;;
10232;SDS011;5161;48.174;11.756;2023-03-23T08:51:50;6.00;;;3.40;;
10232;SDS011;5161;48.174;11.756;2023-03-23T08:54:53;4.70;;;3.17;;
10232;SDS011;5161;48.174;11.756;2023-03-23T08:57:38;6.10;;;3.37;;
10232;SDS011;5161;48.174;11.756;2023-03-23T09:00:32;5.43;;;3.40;;
10232;SDS011;5161;48.174;11.756;2023-03-23T09:03:15;5.33;;;3.13;;
10232;SDS011;5161;48.174;11.756;2023-03-23T09:06:27;7.67;;;3.70;;
10232;SDS011;5161;48.174;11.756;2023-03-23T09:08:53;5.20;;;3.40;;
10232;SDS011;5161;48.174;11.756;2023-03-23T09:11:31;10.73;;;4.97;;
10232;SDS011;5161;48.174;11.756;2023-03-23T09:14:15;10.70;;;4.00;;
10232;SDS011;5161;48.174;11.756;2023-03-23T09:20:34;9.10;;;3.70;;
10232;SDS011;5161;48.174;11.756;2023-03-23T09:34:42;14.37;;;7.33;;
10232;SDS011;5161;48.174;11.756;2023-03-23T09:45:58;3.87;;;3.47;;
10232;SDS011;5161;48.174;11.756;2023-03-23T09:53:48;3.80;;;3.50;;
10232;SDS011;5161;48.174;11.756;2023-03-23T09:56:18;7.67;;;3.77;;
10232;SDS011;5161;48.174;11.756;2023-03-23T09:58:57;3.80;;;3.50;;
10232;SDS011;5161;48.174;11.756;2023-03-23T10:01:35;9.73;;;3.83;;
10232;SDS011;5161;48.174;11.756;2023-03-23T10:04:54;7.73;;;4.37;;
10232;SDS011;5161;48.174;11.756;2023-03-23T10:09:41;4.60;;;4.20;;
10232;SDS011;5161;48.174;11.756;2023-03-23T10:15:14;10.20;;;4.87;;
10232;SDS011;5161;48.174;11.756;2023-03-23T10:18:02;8.60;;;5.03;;
10232;SDS011;5161;48.174;11.756;2023-03-23T10:20:43;10.63;;;7.60;;
10232;SDS011;5161;48.174;11.756;2023-03-23T10:25:48;5.90;;;5.33;;
10232;SDS011;5161;48.174;11.756;2023-03-23T10:31:41;14.10;;;5.83;;
10232;SDS011;5161;48.174;11.756;2023-03-23T10:34:13;8.47;;;4.43;;
10232;SDS011;5161;48.174;11.756;2023-03-23T10:37:00;7.53;;;4.60;;
10232;SDS011;5161;48.174;11.756;2023-03-23T10:39:53;7.33;;;4.47;;
10232;SDS011;5161;48.174;11.756;2023-03-23T10:42:27;7.40;;;4.40;;
10232;SDS011;5161;48.174;11.756;2023-03-23T10:44:56;11.20;;;4.53;;
10232;SDS011;5161;48.174;11.756;2023-03-23T10:47:24;9.83;;;4.93;;
10232;SDS011;5161;48.174;11.756;2023-03-23T10:49:51;13.77;;;4.53;;
10232;SDS011;5161;48.174;11.756;2023-03-23T10:52:32;5.97;;;4.30;;
10232;SDS011;5161;48.174;11.756;2023-03-23T10:57:41;6.40;;;4.47;;
10232;SDS011;5161;48.174;11.756;2023-03-23T11:03:05;5.67;;;4.50;;
10232;SDS011;5161;48.174;11.756;2023-03-23T11:06:19;5.23;;;4.10;;
10232;SDS011;5161;48.174;11.756;2023-03-23T11:08:51;6.23;;;4.20;;
10232;SDS011;5161;48.174;11.756;2023-03-23T11:11:27;7.27;;;4.60;;
10232;SDS011;5161;48.174;11.756;2023-03-23T11:13:58;4.80;;;4.40;;
10232;SDS011;5161;48.174;11.756;2023-03-23T11:16:43;9.00;;;4.17;;
10232;SDS011;5161;48.174;11.756;2023-03-23T11:19:22;7.93;;;4.30;;
10232;SDS011;5161;48.174;11.756;2023-03-23T11:21:51;6.20;;;3.83;;
10232;SDS011;5161;48.174;11.756;2023-03-23T11:24:23;4.30;;;3.90;;
10232;SDS011;5161;48.174;11.756;2023-03-23T11:26:51;5.30;;;3.77;;
10232;SDS011;5161;48.174;11.756;2023-03-23T11:29:22;5.33;;;3.90;;
10232;SDS011;5161;48.174;11.756;2023-03-23T11:31:50;3.87;;;3.57;;
10232;SDS011;5161;48.174;11.756;2023-03-23T11:34:23;7.17;;;3.83;;
10232;SDS011;5161;48.174;11.756;2023-03-23T11:39:29;4.63;;;3.80;;
10232;SDS011;5161;48.174;11.756;2023-03-23T11:42:00;4.40;;;4.00;;
10232;SDS011;5161;48.174;11.756;2023-03-23T11:44:32;5.27;;;4.30;;
10232;SDS011;5161;48.174;11.756;2023-03-23T11:47:01;4.97;;;3.80;;
10232;SDS011;5161;48.174;11.756;2023-03-23T11:49:47;4.10;;;3.80;;
10232;SDS011;5161;48.174;11.756;2023-03-23T11:52:48;4.67;;;4.17;;
10232;SDS011;5161;48.174;11.756;2023-03-23T11:57:50;10.27;;;4.63;;
10232;SDS011;5161;48.174;11.756;2023-03-23T12:00:21;10.10;;;4.47;;
10232;SDS011;5161;48.174;11.756;2023-03-23T12:06:12;5.20;;;4.60;;
10232;SDS011;5161;48.174;11.756;2023-03-23T12:08:55;7.77;;;4.37;;
10232;SDS011;5161;48.174;11.756;2023-03-23T12:17:46;6.37;;;4.63;;
10232;SDS011;5161;48.174;11.756;2023-03-23T12:28:39;7.33;;;5.10;;
10232;SDS011;5161;48.174;11.756;2023-03-23T12:33:56;8.87;;;6.00;;
10232;SDS011;5161;48.174;11.756;2023-03-23T12:47:46;11.00;;;4.97;;
10232;SDS011;5161;48.174;11.756;2023-03-23T12:50:41;7.27;;;4.40;;
10232;SDS011;5161;48.174;11.756;2023-03-23T12:53:18;9.37;;;4.63;;
10232;SDS011;5161;48.174;11.756;2023-03-23T12:58:48;6.97;;;5.17;;
10232;SDS011;5161;48.174;11.756;2023-03-23T13:01:24;7.27;;;5.10;;
10232;SDS011;5161;48.174;11.756;2023-03-23T13:03:58;7.03;;;4.63;;
10232;SDS011;5161;48.174;11.756;2023-03-23T13:06:46;6.33;;;4.80;;
10232;SDS011;5161;48.174;11.756;2023-03-23T13:11:41;5.87;;;4.80;;
10232;SDS011;5161;48.174;11.756;2023-03-23T13:24:58;9.77;;;4.03;;
10232;SDS011;5161;48.174;11.756;2023-03-23T13:27:28;6.20;;;3.73;;
10232;SDS011;5161;48.174;11.756;2023-03-23T13:29:55;7.87;;;2.87;;
10232;SDS011;5161;48.174;11.756;2023-03-23T13:32:32;10.40;;;3.10;;
10232;SDS011;5161;48.174;11.756;2023-03-23T13:35:04;6.00;;;2.70;;
10232;SDS011;5161;48.174;11.756;2023-03-23T13:37:40;7.07;;;3.07;;
10232;SDS011;5161;48.174;11.756;2023-03-23T13:42:46;6.00;;;2.83;;
10232;SDS011;5161;48.174;11.756;2023-03-23T13:48:41;8.67;;;3.10;;
10232;SDS011;5161;48.174;11.756;2023-03-23T13:50:51;7.13;;;3.10;;
10232;SDS011;5161;48.174;11.756;2023-03-23T13:53:42;6.30;;;3.47;;
10232;SDS011;5161;48.174;11.756;2023-03-23T13:56:48;3.83;;;3.50;;
10232;SDS011;5161;48.174;11.756;2023-03-23T14:01:54;3.77;;;3.53;;
10232;SDS011;5161;48.174;11.756;2023-03-23T14:04:21;6.53;;;3.50;;
10232;SDS011;5161;48.174;11.756;2023-03-23T14:06:55;3.70;;;3.40;;
10232;SDS011;5161;48.174;11.756;2023-03-23T14:09:36;6.47;;;3.23;;
10232;SDS011;5161;48.174;11.756;2023-03-23T14:12:05;8.90;;;3.50;;
10232;SDS011;5161;48.174;11.756;2023-03-23T14:14:47;4.03;;;3.53;;
10232;SDS011;5161;48.174;11.756;2023-03-23T14:17:27;3.53;;;3.23;;
10232;SDS011;5161;48.174;11.756;2023-03-23T14:19:55;4.17;;;3.43;;
10232;SDS011;5161;48.174;11.756;2023-03-23T14:22:28;4.27;;;3.53;;
10232;SDS011;5161;48.174;11.756;2023-03-23T14:25:14;3.67;;;3.20;;
10232;SDS011;5161;48.174;11.756;2023-03-23T14:27:41;5.80;;;3.20;;
10232;SDS011;5161;48.174;11.756;2023-03-23T14:30:12;3.43;;;3.13;;
10232;SDS011;5161;48.174;11.756;2023-03-23T14:32:40;3.83;;;2.93;;
10232;SDS011;5161;48.174;11.756;2023-03-23T14:35:08;3.90;;;3.30;;
10232;SDS011;5161;48.174;11.756;2023-03-23T14:38:02;7.83;;;3.50;;
10232;SDS011;5161;48.174;11.756;2023-03-23T14:40:33;5.77;;;3.43;;
10232;SDS011;5161;48.174;11.756;2023-03-23T14:43:00;5.67;;;3.20;;
10232;SDS011;5161;48.174;11.756;2023-03-23T14:45:26;5.87;;;3.17;;
10232;SDS011;5161;48.174;11.756;2023-03-23T14:47:59;4.60;;;3.03;;
10232;SDS011;5161;48.174;11.756;2023-03-23T14:53:12;3.53;;;3.23;;
10232;SDS011;5161;48.174;11.756;2023-03-23T14:56:21;3.10;;;2.80;;
10232;SDS011;5161;48.174;11.756;2023-03-23T14:58:51;7.07;;;2.80;;
10232;SDS011;5161;48.174;11.756;2023-03-23T15:01:24;3.73;;;2.87;;
10232;SDS011;5161;48.174;11.756;2023-03-23T15:03:57;5.87;;;3.27;;
10232;SDS011;5161;48.174;11.756;2023-03-23T15:06:28;10.50;;;4.50;;
10232;SDS011;5161;48.174;11.756;2023-03-23T15:08:56;8.50;;;4.13;;
10232;SDS011;5161;48.174;11.756;2023-03-23T15:11:29;8.90;;;3.10;;
10232;SDS011;5161;48.174;11.756;2023-03-23T15:13:58;9.20;;;4.27;;
10232;SDS011;5161;48.174;11.756;2023-03-23T15:16:31;3.50;;;3.20;;
10232;SDS011;5161;48.174;11.756;2023-03-23T15:19:03;4.97;;;3.50;;
10232;SDS011;5161;48.174;11.756;2023-03-23T15:21:32;7.90;;;4.40;;
10232;SDS011;5161;48.174;11.756;2023-03-23T15:23:59;9.70;;;5.20;;
10232;SDS011;5161;48.174;11.756;2023-03-23T15:27:28;8.87;;;5.43;;
10232;SDS011;5161;48.174;11.756;2023-03-23T15:29:34;6.97;;;4.40;;
10232;SDS011;5161;48.174;11.756;2023-03-23T15:32:22;6.83;;;4.07;;
10232;SDS011;5161;48.174;11.756;2023-03-23T15:34:50;6.33;;;4.20;;
10232;SDS011;5161;48.174;11.756;2023-03-23T15:37:30;5.43;;;4.17;;
10232;SDS011;5161;48.174;11.756;2023-03-23T15:39:57;7.03;;;4.10;;
10232;SDS011;5161;48.174;11.756;2023-03-23T15:42:29;6.63;;;4.13;;
10232;SDS011;5161;48.174;11.756;2023-03-23T15:47:38;9.63;;;4.47;;
10232;SDS011;5161;48.174;11.756;2023-03-23T15:52:44;5.97;;;3.90;;
10232;SDS011;5161;48.174;11.756;2023-03-23T15:55:22;8.60;;;3.60;;
10232;SDS011;5161;48.174;11.756;2023-03-23T15:57:48;7.73;;;4.10;;
10232;SDS011;5161;48.174;11.756;2023-03-23T16:00:15;10.90;;;4.40;;
10232;SDS011;5161;48.174;11.756;2023-03-23T16:02:42;4.33;;;3.77;;
10232;SDS011;5161;48.174;11.756;2023-03-23T16:05:16;6.20;;;3.70;;
10232;SDS011;5161;48.174;11.756;2023-03-23T16:07:43;6.63;;;4.17;;
10232;SDS011;5161;48.174;11.756;2023-03-23T16:10:16;5.83;;;4.00;;
10232;SDS011;5161;48.174;11.756;2023-03-23T16:12:44;7.83;;;4.00;;
10232;SDS011;5161;48.174;11.756;2023-03-23T16:15:12;6.50;;;3.53;;
10232;SDS011;5161;48.174;11.756;2023-03-23T16:17:38;6.57;;;3.97;;
10232;SDS011;5161;48.174;11.756;2023-03-23T16:20:08;4.33;;;3.40;;
10232;SDS011;5161;48.174;11.756;2023-03-23T16:22:43;4.33;;;3.60;;
10232;SDS011;5161;48.174;11.756;2023-03-23T16:25:09;5.17;;;3.57;;
10232;SDS011;5161;48.174;11.756;2023-03-23T16:27:35;5.90;;;3.50;;
10232;SDS011;5161;48.174;11.756;2023-03-23T16:30:07;4.87;;;3.50;;
10232;SDS011;5161;48.174;11.756;2023-03-23T16:32:45;4.80;;;3.70;;
10232;SDS011;5161;48.174;11.756;2023-03-23T16:35:12;5.03;;;3.60;;
10232;SDS011;5161;48.174;11.756;2023-03-23T16:37:43;7.30;;;3.93;;
10232;SDS011;5161;48.174;11.756;2023-03-23T16:40:10;4.33;;;3.40;;
10232;SDS011;5161;48.174;11.756;2023-03-23T16:42:36;6.30;;;3.00;;
10232;SDS011;5161;48.174;11.756;2023-03-23T16:45:02;4.47;;;3.80;;
10232;SDS011;5161;48.174;11.756;2023-03-23T16:47:28;4.00;;;3.67;;
10232;SDS011;5161;48.174;11.756;2023-03-23T16:49:53;5.77;;;3.07;;
10232;SDS011;5161;48.174;11.756;2023-03-23T16:52:19;13.83;;;10.47;;
10232;SDS011;5161;48.174;11.756;2023-03-23T16:54:45;6.43;;;3.80;;
10232;SDS011;5161;48.174;11.756;2023-03-23T16:57:10;10.53;;;4.80;;
10232;SDS011;5161;48.174;11.756;2023-03-23T16:59:36;5.60;;;3.70;;
10232;SDS011;5161;48.174;11.756;2023-03-23T17:02:02;6.70;;;4.33;;
10232;SDS011;5161;48.174;11.756;2023-03-23T17:04:28;4.73;;;4.33;;
10232;SDS011;5161;48.174;11.756;2023-03-23T17:06:55;5.23;;;4.77;;
10232;SDS011;5161;48.174;11.756;2023-03-23T17:09:23;5.70;;;5.10;;
10232;SDS011;5161;48.174;11.756;2023-03-23T17:11:49;4.80;;;3.77;;
10232;SDS011;5161;48.174;11.756;2023-03-23T17:14:15;5.80;;;4.20;;
10232;SDS011;5161;48.174;11.756;2023-03-23T17:16:40;6.17;;;4.17;;
10232;SDS011;5161;48.174;11.756;2023-03-23T17:19:06;6.73;;;3.87;;
10232;SDS011;5161;48.174;11.756;2023-03-23T17:21:32;4.63;;;3.87;;
10232;SDS011;5161;48.174;11.756;2023-03-23T17:23:57;4.53;;;4.13;;
10232;SDS011;5161;48.174;11.756;2023-03-23T17:26:23;5.67;;;4.30;;
10232;SDS011;5161;48.174;11.756;2023-03-23T17:28:48;14.67;;;10.20;;
10232;SDS011;5161;48.174;11.756;2023-03-23T17:31:14;7.30;;;5.47;;
10232;SDS011;5161;48.174;11.756;2023-03-23T17:33:40;5.33;;;4.83;;
10232;SDS011;5161;48.174;11.756;2023-03-23T17:36:06;7.90;;;6.40;;
10232;SDS011;5161;48.174;11.756;2023-03-23T17:38:32;8.50;;;5.03;;
10232;SDS011;5161;48.174;11.756;2023-03-23T17:40:58;7.37;;;5.90;;
10232;SDS011;5161;48.174;11.756;2023-03-23T17:43:25;6.20;;;5.37;;
10232;SDS011;5161;48.174;11.756;2023-03-23T17:45:51;6.97;;;5.10;;
10232;SDS011;5161;48.174;11.756;2023-03-23T17:48:17;6.77;;;3.83;;
10232;SDS011;5161;48.174;11.756;2023-03-23T17:50:52;6.47;;;3.83;;
10232;SDS011;5161;48.174;11.756;2023-03-23T17:53:21;6.53;;;4.00;;
10232;SDS011;5161;48.174;11.756;2023-03-23T17:55:51;4.17;;;3.87;;
10232;SDS011;5161;48.174;11.756;2023-03-23T17:58:16;5.87;;;4.00;;
10232;SDS011;5161;48.174;11.756;2023-03-23T18:00:43;4.77;;;3.63;;
10232;SDS011;5161;48.174;11.756;2023-03-23T18:03:08;5.10;;;3.73;;
10232;SDS011;5161;48.174;11.756;2023-03-23T18:05:34;5.27;;;3.90;;
10232;SDS011;5161;48.174;11.756;2023-03-23T18:08:04;10.50;;;4.07;;
10232;SDS011;5161;48.174;11.756;2023-03-23T18:10:36;9.87;;;4.03;;
10232;SDS011;5161;48.174;11.756;2023-03-23T18:13:06;10.17;;;4.40;;
10232;SDS011;5161;48.174;11.756;2023-03-23T18:15:33;12.63;;;5.17;;
10232;SDS011;5161;48.174;11.756;2023-03-23T18:18:04;7.00;;;5.23;;
10232;SDS011;5161;48.174;11.756;2023-03-23T18:20:30;12.87;;;5.70;;
10232;SDS011;5161;48.174;11.756;2023-03-23T18:22:56;13.63;;;6.70;;
10232;SDS011;5161;48.174;11.756;2023-03-23T18:25:22;11.17;;;6.00;;
10232;SDS011;5161;48.174;11.756;2023-03-23T18:27:48;10.97;;;6.60;;
10232;SDS011;5161;48.174;11.756;2023-03-23T18:30:14;8.97;;;7.53;;
10232;SDS011;5161;48.174;11.756;2023-03-23T18:32:57;16.50;;;7.40;;
10232;SDS011;5161;48.174;11.756;2023-03-23T18:35:29;13.00;;;6.33;;
10232;SDS011;5161;48.174;11.756;2023-03-23T18:37:55;10.43;;;6.20;;
10232;SDS011;5161;48.174;11.756;2023-03-23T18:40:20;11.17;;;5.73;;
10232;SDS011;5161;48.174;11.756;2023-03-23T18:42:46;11.20;;;5.20;;
10232;SDS011;5161;48.174;11.756;2023-03-23T18:45:12;10.47;;;5.10;;
10232;SDS011;5161;48.174;11.756;2023-03-23T18:47:38;7.80;;;5.17;;
10232;SDS011;5161;48.174;11.756;2023-03-23T18:50:05;6.10;;;5.20;;
10232;SDS011;5161;48.174;11.756;2023-03-23T18:52:32;7.87;;;7.07;;
10232;SDS011;5161;48.174;11.756;2023-03-23T18:54:58;9.03;;;6.50;;
10232;SDS011;5161;48.174;11.756;2023-03-23T18:57:24;7.70;;;6.90;;
10232;SDS011;5161;48.174;11.756;2023-03-23T18:59:50;9.90;;;7.20;;